Time;durP1;ratioP1;P1;durP2;ratioP2;P2;SDS_P1;SDS_P2;PMS_P1;PMS_P2;Temp;Humidity;BMP_temperature;BMP_pressure;BME280_temperature;BME280_humidity;BME280_pressure;Samples;Min_cycle;Max_cycle;Signal;HPM_P1;HPM_P2
2021/08/01 00:00:50;;;;;;;4.18;3.05;;;17.60;75.00;;;;;;5051675;28;20349;-77
2021/08/01 00:03:15;;;;;;;3.30;2.80;;;17.60;75.10;;;;;;5051757;28;20033;-77
2021/08/01 00:05:45;;;;;;;5.60;3.88;;;17.60;75.10;;;;;;5049832;28;20021;-77
2021/08/01 00:08:10;;;;;;;4.13;3.50;;;17.60;75.20;;;;;;5050425;28;20037;-77
2021/08/01 00:10:36;;;;;;;5.90;4.70;;;17.60;75.30;;;;;;5051212;28;20545;-76
2021/08/01 00:13:02;;;;;;;4.38;3.70;;;17.50;75.30;;;;;;5051233;28;20024;-76
2021/08/01 00:15:28;;;;;;;5.00;4.18;;;17.50;75.40;;;;;;5050079;28;20059;-75
2021/08/01 00:17:53;;;;;;;6.45;4.75;;;17.50;75.40;;;;;;5051407;28;20083;-76
2021/08/01 00:20:19;;;;;;;5.80;4.72;;;17.50;75.60;;;;;;5050959;28;20475;-76
2021/08/01 00:22:45;;;;;;;5.65;4.60;;;17.40;75.60;;;;;;5051673;28;20090;-77
2021/08/01 00:25:11;;;;;;;5.30;4.22;;;17.40;75.70;;;;;;5051199;28;20048;-76
2021/08/01 00:27:36;;;;;;;6.03;4.80;;;17.40;75.90;;;;;;5049600;28;20029;-76
2021/08/01 00:30:05;;;;;;;8.35;5.95;;;17.40;75.90;;;;;;5051301;28;20058;-77
2021/08/01 00:32:31;;;;;;;8.10;5.30;;;17.40;76.00;;;;;;5050369;28;20075;-77
2021/08/01 00:34:57;;;;;;;6.75;5.18;;;17.40;76.10;;;;;;5050610;28;20037;-77
2021/08/01 00:37:23;;;;;;;5.93;5.25;;;17.40;76.00;;;;;;5050140;28;20028;-77
2021/08/01 00:39:50;;;;;;;9.73;5.60;;;17.40;76.10;;;;;;5049724;28;20021;-77
2021/08/01 00:42:17;;;;;;;7.30;5.10;;;17.30;76.20;;;;;;5047024;28;20111;-77
2021/08/01 00:44:42;;;;;;;5.80;4.70;;;17.30;76.30;;;;;;5051365;28;20025;-77
2021/08/01 00:47:09;;;;;;;7.53;5.30;;;17.20;76.40;;;;;;5050281;28;20024;-77
2021/08/01 00:49:35;;;;;;;6.80;4.93;;;17.20;76.40;;;;;;5050818;28;20111;-78
2021/08/01 00:52:01;;;;;;;8.02;6.07;;;17.20;76.50;;;;;;5051245;28;20687;-78
2021/08/01 00:54:26;;;;;;;8.30;6.35;;;17.20;76.80;;;;;;5050821;28;20163;-76
2021/08/01 00:56:52;;;;;;;6.97;5.72;;;17.10;76.90;;;;;;5050561;28;20032;-77
2021/08/01 00:59:18;;;;;;;8.02;6.70;;;17.10;77.10;;;;;;5050808;28;20039;-77
2021/08/01 01:01:50;;;;;;;8.25;6.18;;;17.00;77.50;;;;;;5050893;28;20051;-77
2021/08/01 01:05:00;;;;;;;6.60;5.35;;;16.90;77.70;;;;;;5049911;28;20033;-77
2021/08/01 01:07:34;;;;;;;6.30;4.20;;;16.90;77.70;;;;;;5040929;28;20033;-77
2021/08/01 01:10:03;;;;;;;7.60;6.15;;;16.90;77.70;;;;;;5039553;28;20074;-76
2021/08/01 01:12:36;;;;;;;7.63;6.55;;;16.80;77.70;;;;;;5050788;28;20422;-76
2021/08/01 01:15:04;;;;;;;;;;;16.80;78.00;;;;;;5051201;28;20032;-76
2021/08/01 01:17:32;;;;;;;6.43;5.10;;;16.80;77.80;;;;;;5038221;28;19916;-76
2021/08/01 01:20:33;;;;;;;6.95;6.22;;;16.70;77.90;;;;;;5050874;28;20028;-76
2021/08/01 01:23:36;;;;;;;5.88;4.97;;;16.60;78.20;;;;;;5050655;28;20060;-77
2021/08/01 01:26:06;;;;;;;7.57;6.03;;;16.60;78.20;;;;;;5049710;28;20021;-77
2021/08/01 01:28:52;;;;;;;8.38;6.40;;;16.60;78.40;;;;;;5050951;28;20026;-76
2021/08/01 01:31:39;;;;;;;7.05;5.93;;;16.50;78.60;;;;;;5043781;28;20399;-76
2021/08/01 01:34:16;;;;;;;8.25;6.40;;;16.50;78.90;;;;;;5039086;28;20099;-77
2021/08/01 01:36:43;;;;;;;8.63;6.68;;;16.40;79.00;;;;;;5050160;28;20025;-77
2021/08/01 01:39:10;;;;;;;7.05;5.32;;;16.40;79.10;;;;;;5050807;28;20028;-77
2021/08/01 01:41:40;;;;;;;6.30;5.00;;;16.40;79.00;;;;;;5050246;28;20090;-77
2021/08/01 01:44:08;;;;;;;6.22;4.70;;;16.50;78.90;;;;;;5050242;28;20407;-78
2021/08/01 01:46:35;;;;;;;9.27;7.35;;;16.50;78.80;;;;;;5049664;28;20029;-77
2021/08/01 01:49:03;;;;;;;8.18;6.28;;;16.50;79.00;;;;;;5054087;28;20024;-77
2021/08/01 01:51:30;;;;;;;8.18;5.97;;;16.40;79.10;;;;;;5054519;28;20123;-77
2021/08/01 01:53:56;;;;;;;7.68;6.40;;;16.40;79.20;;;;;;5054471;28;20440;-77
2021/08/01 01:56:21;;;;;;;8.52;6.32;;;16.40;79.30;;;;;;5053767;28;20032;-77
2021/08/01 01:58:47;;;;;;;8.85;6.97;;;16.30;79.30;;;;;;5053834;28;20494;-77
2021/08/01 02:01:13;;;;;;;9.55;6.40;;;16.30;79.60;;;;;;5054131;28;20021;-77
2021/08/01 02:03:38;;;;;;;8.90;7.05;;;16.20;79.70;;;;;;5053156;28;20037;-77
2021/08/01 02:06:04;;;;;;;7.30;6.10;;;16.20;79.80;;;;;;5052582;28;20046;-77
2021/08/01 02:08:42;;;;;;;7.93;5.43;;;16.20;79.80;;;;;;5054472;28;20090;-77
2021/08/01 02:11:09;;;;;;;8.57;6.10;;;16.20;79.80;;;;;;5052490;28;20025;-77
2021/08/01 02:13:47;;;;;;;7.53;5.93;;;16.20;79.70;;;;;;5054429;28;20033;-76
2021/08/01 02:16:12;;;;;;;7.43;5.45;;;16.30;79.70;;;;;;5053162;28;20025;-76
2021/08/01 02:18:51;;;;;;;6.53;5.82;;;16.30;79.70;;;;;;5053803;28;20108;-76
2021/08/01 02:21:21;;;;;;;6.60;5.22;;;16.30;79.70;;;;;;5044575;28;20035;-76
2021/08/01 02:23:49;;;;;;;8.13;6.10;;;16.30;79.70;;;;;;5053560;28;20396;-76
2021/08/01 02:26:18;;;;;;;8.57;7.20;;;16.30;79.70;;;;;;5053315;28;20048;-76
2021/08/01 02:28:44;;;;;;;6.70;5.68;;;16.30;79.80;;;;;;5053661;28;20036;-76
2021/08/01 02:31:11;;;;;;;6.03;4.88;;;16.30;79.80;;;;;;5053630;28;20360;-76
2021/08/01 02:33:37;;;;;;;8.38;6.97;;;16.30;79.80;;;;;;5052095;28;20436;-76
2021/08/01 02:36:06;;;;;;;10.85;8.27;;;16.30;79.80;;;;;;5053131;28;20051;-76
2021/08/01 02:38:32;;;;;;;9.55;7.90;;;16.20;80.10;;;;;;5053357;28;20104;-76
2021/08/01 02:41:02;;;;;;;8.25;7.38;;;16.10;80.30;;;;;;5052774;28;20060;-76
2021/08/01 02:43:31;;;;;;;13.07;9.43;;;16.00;80.70;;;;;;5053356;28;20053;-76
2021/08/01 02:45:57;;;;;;;8.57;6.38;;;16.00;80.90;;;;;;5051244;28;20380;-76
2021/08/01 02:48:25;;;;;;;9.25;6.32;;;16.00;80.80;;;;;;5053243;28;20476;-77
2021/08/01 02:50:59;;;;;;;8.98;7.60;;;16.10;80.90;;;;;;5052662;28;20029;-77
2021/08/01 02:53:26;;;;;;;9.18;8.07;;;16.10;80.80;;;;;;5053279;28;20033;-76
2021/08/01 02:55:54;;;;;;;6.45;5.47;;;16.10;80.90;;;;;;5052762;28;20104;-77
2021/08/01 02:58:20;;;;;;;9.40;7.20;;;16.10;81.10;;;;;;5051865;28;20021;-77
2021/08/01 03:00:47;;;;;;;9.70;8.45;;;16.10;81.20;;;;;;5052202;28;20017;-77
2021/08/01 03:03:15;;;;;;;10.05;7.93;;;16.10;81.40;;;;;;5053324;28;20470;-76
2021/08/01 03:05:42;;;;;;;11.18;9.85;;;16.10;81.50;;;;;;5053182;28;20064;-76
2021/08/01 03:08:12;;;;;;;8.38;7.47;;;16.00;81.90;;;;;;5051617;28;20387;-76
2021/08/01 03:10:41;;;;;;;10.43;9.32;;;16.00;82.00;;;;;;5052733;28;20017;-76
2021/08/01 03:13:07;;;;;;;9.65;8.65;;;16.00;82.10;;;;;;5053544;28;20028;-77
2021/08/01 03:15:32;;;;;;;9.75;8.48;;;16.00;82.10;;;;;;5052824;28;20032;-77
2021/08/01 03:17:58;;;;;;;8.57;6.88;;;16.10;82.00;;;;;;5052279;28;20021;-76
2021/08/01 03:20:23;;;;;;;6.75;5.80;;;16.10;82.00;;;;;;5052829;28;20032;-77
2021/08/01 03:22:49;;;;;;;8.02;6.53;;;16.20;81.80;;;;;;5052725;28;20162;-78
2021/08/01 03:25:15;;;;;;;7.78;6.97;;;16.30;81.60;;;;;;5052741;28;20391;-77
2021/08/01 03:27:41;;;;;;;6.38;5.40;;;16.30;81.50;;;;;;5051881;28;20374;-77
2021/08/01 03:30:07;;;;;;;10.57;8.02;;;16.40;81.40;;;;;;5051377;28;20021;-77
2021/08/01 03:32:32;;;;;;;8.18;7.30;;;16.40;82.10;;;;;;5052524;28;20102;-77
2021/08/01 03:34:58;;;;;;;9.20;7.50;;;16.30;81.50;;;;;;5052610;28;20479;-77
2021/08/01 03:37:27;;;;;;;9.77;7.97;;;16.40;81.60;;;;;;5052119;28;20087;-77
2021/08/01 03:39:53;;;;;;;9.55;8.55;;;16.30;81.70;;;;;;5051948;28;20422;-77
2021/08/01 03:42:18;;;;;;;9.68;8.60;;;16.30;81.80;;;;;;5052060;28;20033;-77
2021/08/01 03:44:44;;;;;;;7.72;6.43;;;16.30;82.00;;;;;;5051917;28;20041;-77
2021/08/01 03:47:10;;;;;;;8.20;7.00;;;16.40;82.10;;;;;;5051813;28;20029;-77
2021/08/01 03:49:36;;;;;;;8.55;7.20;;;16.40;81.90;;;;;;5051935;28;20414;-77
2021/08/01 03:52:01;;;;;;;10.98;9.35;;;16.40;81.80;;;;;;5052626;28;20053;-77
2021/08/01 03:54:27;;;;;;;11.45;10.23;;;16.40;82.00;;;;;;5052058;28;20498;-77
2021/08/01 03:56:53;;;;;;;11.65;9.98;;;16.40;82.20;;;;;;5051606;28;20021;-77
2021/08/01 03:59:18;;;;;;;11.00;8.02;;;16.30;82.40;;;;;;5051481;28;20025;-77
2021/08/01 04:01:44;;;;;;;11.95;9.32;;;16.30;82.50;;;;;;5051870;28;20032;-77
2021/08/01 04:04:09;;;;;;;8.90;7.85;;;16.30;82.90;;;;;;5051031;28;20033;-76
2021/08/01 04:06:35;;;;;;;11.05;9.88;;;16.30;83.50;;;;;;5051117;28;20023;-76
2021/08/01 04:09:04;;;;;;;11.45;10.25;;;16.20;82.90;;;;;;5051863;28;20048;-76
2021/08/01 04:11:30;;;;;;;10.30;8.23;;;16.20;83.20;;;;;;5050028;28;20128;-76
2021/08/01 04:13:56;;;;;;;7.43;6.68;;;16.20;83.20;;;;;;5051917;28;20427;-76
2021/08/01 04:16:21;;;;;;;11.38;9.90;;;16.30;83.10;;;;;;5051204;28;20033;-76
2021/08/01 04:18:47;;;;;;;12.45;10.60;;;16.30;83.20;;;;;;5051628;28;20029;-76
2021/08/01 04:21:13;;;;;;;13.30;11.13;;;16.20;83.40;;;;;;5051526;28;20483;-76
2021/08/01 04:23:40;;;;;;;10.07;8.85;;;16.20;83.70;;;;;;5050991;28;20044;-76
2021/08/01 04:26:08;;;;;;;10.07;7.30;;;16.20;83.90;;;;;;5050522;28;20444;-76
2021/08/01 04:28:34;;;;;;;9.45;8.10;;;16.20;83.80;;;;;;5051433;28;20021;-76
2021/08/01 04:30:59;;;;;;;10.45;8.48;;;16.20;83.70;;;;;;5048400;28;20067;-75
2021/08/01 04:33:25;;;;;;;6.93;6.22;;;16.30;83.60;;;;;;5051622;28;20033;-76
2021/08/01 04:35:51;;;;;;;11.63;9.73;;;16.30;83.40;;;;;;5050663;28;20025;-76
2021/08/01 04:38:17;;;;;;;9.38;8.05;;;16.30;83.50;;;;;;5051288;28;20029;-76
2021/08/01 04:40:42;;;;;;;7.25;6.50;;;16.30;83.60;;;;;;5051135;28;20479;-76
2021/08/01 04:43:08;;;;;;;9.07;8.07;;;16.30;83.50;;;;;;5050520;28;20041;-76
2021/08/01 04:45:33;;;;;;;6.97;6.13;;;16.30;83.50;;;;;;5050126;28;20021;-76
2021/08/01 04:47:59;;;;;;;8.77;6.88;;;16.40;83.40;;;;;;5050263;28;20067;-76
2021/08/01 04:50:24;;;;;;;6.93;5.20;;;16.50;83.30;;;;;;5050584;28;20056;-77
2021/08/01 04:52:51;;;;;;;9.43;6.95;;;16.50;83.00;;;;;;5051017;28;20545;-77
2021/08/01 04:55:17;;;;;;;8.02;6.90;;;16.60;82.90;;;;;;5050455;28;20043;-77
2021/08/01 04:57:43;;;;;;;11.10;6.22;;;16.60;82.90;;;;;;5050027;28;20024;-78
2021/08/01 05:00:09;;;;;;;8.52;6.38;;;16.60;82.70;;;;;;5050265;28;20024;-77
2021/08/01 05:02:34;;;;;;;7.35;5.13;;;16.60;82.70;;;;;;5049057;28;20511;-77
2021/08/01 05:05:02;;;;;;;6.30;5.45;;;16.60;82.70;;;;;;5050965;28;20049;-77
2021/08/01 05:07:27;;;;;;;10.38;7.38;;;16.70;82.60;;;;;;5050511;28;20025;-76
2021/08/01 05:09:53;;;;;;;9.02;6.40;;;16.70;82.60;;;;;;5050665;28;20028;-76
2021/08/01 05:12:18;;;;;;;7.53;5.30;;;16.70;82.50;;;;;;5050890;28;20056;-77
2021/08/01 05:14:45;;;;;;;8.52;5.97;;;16.70;82.40;;;;;;5050292;28;20025;-76
2021/08/01 05:17:11;;;;;;;7.72;6.57;;;16.80;82.40;;;;;;5050346;28;20394;-77
2021/08/01 05:19:41;;;;;;;7.85;6.30;;;16.80;82.40;;;;;;5050589;28;20116;-77
2021/08/01 05:22:07;;;;;;;10.27;8.30;;;16.80;82.40;;;;;;5052100;28;20029;-77
2021/08/01 05:24:36;;;;;;;12.45;9.30;;;16.80;82.30;;;;;;5054889;28;20029;-77
2021/08/01 05:27:01;;;;;;;10.90;8.02;;;16.80;82.30;;;;;;5054069;28;20051;-76
2021/08/01 05:29:27;;;;;;;9.02;7.05;;;16.80;82.30;;;;;;5054816;28;20480;-76
2021/08/01 05:31:54;;;;;;;11.18;7.47;;;16.80;82.20;;;;;;5053747;28;20029;-76
2021/08/01 05:34:20;;;;;;;10.07;8.35;;;16.90;82.20;;;;;;5054194;28;20025;-76
2021/08/01 05:36:46;;;;;;;14.23;10.88;;;16.90;82.20;;;;;;5044990;28;20091;-76
2021/08/01 05:39:12;;;;;;;10.35;8.20;;;16.90;82.20;;;;;;5051369;28;20028;-77
2021/08/01 05:41:37;;;;;;;9.05;6.03;;;16.80;82.20;;;;;;5052683;28;20627;-76
2021/08/01 05:44:03;;;;;;;10.70;7.63;;;16.90;82.30;;;;;;5053841;28;20445;-76
2021/08/01 05:46:29;;;;;;;13.60;9.02;;;16.90;82.10;;;;;;5053905;28;20426;-76
2021/08/01 05:48:54;;;;;;;12.10;8.45;;;16.90;82.00;;;;;;5045210;28;20036;-76
2021/08/01 05:51:20;;;;;;;12.57;8.82;;;16.90;82.00;;;;;;5051844;28;20021;-77
2021/08/01 05:53:46;;;;;;;10.52;7.50;;;17.00;82.00;;;;;;5050864;28;20387;-77
2021/08/01 05:56:12;;;;;;;14.60;9.52;;;16.90;81.90;;;;;;5054268;28;20380;-77
2021/08/01 05:58:39;;;;;;;12.95;9.10;;;17.00;81.90;;;;;;5053343;28;20041;-77
2021/08/01 06:01:17;;;;;;;12.02;7.72;;;17.00;81.90;;;;;;5052631;28;20491;-77
2021/08/01 06:03:43;;;;;;;11.77;6.50;;;17.10;81.90;;;;;;5051867;28;20044;-77
2021/08/01 06:06:13;;;;;;;10.43;7.15;;;17.10;81.70;;;;;;5052286;28;20025;-77
2021/08/01 06:08:40;;;;;;;11.15;7.35;;;17.20;81.60;;;;;;5053066;28;20037;-77
2021/08/01 06:11:05;;;;;;;11.20;6.88;;;17.20;81.50;;;;;;5052847;28;20463;-77
2021/08/01 06:13:31;;;;;;;9.52;7.32;;;17.20;81.40;;;;;;5052498;28;20043;-77
2021/08/01 06:15:57;;;;;;;11.68;7.93;;;17.20;81.30;;;;;;5052182;28;20155;-77
2021/08/01 06:18:23;;;;;;;12.55;8.15;;;17.30;81.30;;;;;;5052403;28;20462;-77
2021/08/01 06:20:49;;;;;;;12.40;8.10;;;17.30;81.40;;;;;;5046592;28;20033;-77
2021/08/01 06:23:14;;;;;;;12.35;7.88;;;17.30;81.30;;;;;;5050473;28;20488;-77
2021/08/01 06:25:40;;;;;;;10.70;7.80;;;17.40;81.30;;;;;;5051566;28;20032;-77
2021/08/01 06:28:05;;;;;;;12.20;8.05;;;17.40;81.20;;;;;;5049428;28;20033;-76
2021/08/01 06:30:32;;;;;;;9.98;7.05;;;17.40;81.30;;;;;;5051750;28;20028;-77
2021/08/01 06:32:57;;;;;;;10.52;7.22;;;17.40;81.20;;;;;;5049863;28;20104;-77
2021/08/01 06:35:23;;;;;;;10.20;7.93;;;17.40;81.20;;;;;;5052962;28;20115;-77
2021/08/01 06:37:48;;;;;;;10.15;7.10;;;17.40;81.00;;;;;;5052113;28;20033;-77
2021/08/01 06:40:16;;;;;;;13.55;9.73;;;17.50;81.10;;;;;;5052900;28;20033;-77
2021/08/01 06:42:42;;;;;;;14.48;9.93;;;17.50;81.10;;;;;;5050314;28;20458;-78
2021/08/01 06:45:08;;;;;;;13.52;9.60;;;17.50;81.20;;;;;;5050567;28;20025;-77
2021/08/01 06:47:34;;;;;;;14.05;9.13;;;17.40;81.20;;;;;;5050757;28;20049;-78
2021/08/01 06:49:59;;;;;;;20.67;14.88;;;17.50;81.20;;;;;;5050752;28;20475;-76
2021/08/01 06:52:25;;;;;;;13.32;11.23;;;17.40;81.20;;;;;;5051200;28;20021;-76
2021/08/01 06:54:50;;;;;;;12.73;9.90;;;17.30;81.40;;;;;;5051319;28;20033;-76
2021/08/01 06:57:16;;;;;;;14.93;10.98;;;17.30;81.60;;;;;;5050986;28;20017;-76
2021/08/01 06:59:41;;;;;;;13.65;8.98;;;17.30;81.70;;;;;;5051446;28;20021;-76
2021/08/01 07:02:07;;;;;;;13.40;8.65;;;17.30;81.80;;;;;;5051563;28;20021;-76
2021/08/01 07:04:32;;;;;;;10.80;7.15;;;17.20;81.90;;;;;;5051074;28;20387;-76
2021/08/01 07:06:58;;;;;;;13.32;9.15;;;17.30;81.90;;;;;;5051135;28;20618;-77
2021/08/01 07:09:25;;;;;;;14.43;9.23;;;17.30;81.80;;;;;;5050807;28;20048;-76
2021/08/01 07:11:51;;;;;;;10.50;7.95;;;17.30;81.80;;;;;;5051439;28;20052;-76
2021/08/01 07:14:17;;;;;;;11.50;7.68;;;17.30;81.60;;;;;;5051457;28;20043;-76
2021/08/01 07:16:43;;;;;;;11.07;7.30;;;17.30;81.50;;;;;;5050792;28;20471;-76
2021/08/01 07:19:09;;;;;;;13.48;8.30;;;17.40;81.70;;;;;;5052570;28;20104;-77
2021/08/01 07:21:34;;;;;;;13.40;8.98;;;17.40;81.60;;;;;;5052563;28;20534;-76
2021/08/01 07:24:00;;;;;;;16.27;11.07;;;17.40;81.60;;;;;;5052384;28;20036;-77
2021/08/01 07:26:25;;;;;;;15.07;8.98;;;17.40;81.60;;;;;;5051589;28;20028;-76
2021/08/01 07:28:51;;;;;;;15.30;8.63;;;17.40;81.60;;;;;;5051287;28;20394;-76
2021/08/01 07:31:16;;;;;;;14.07;8.25;;;17.40;81.60;;;;;;5051983;28;20032;-76
2021/08/01 07:33:42;;;;;;;12.55;7.13;;;17.40;81.50;;;;;;5051500;28;20017;-75
2021/08/01 07:36:07;;;;;;;16.52;10.50;;;17.30;81.50;;;;;;5051579;28;20120;-75
2021/08/01 07:38:33;;;;;;;16.38;10.05;;;17.40;81.60;;;;;;5051040;28;20029;-76
2021/08/01 07:40:58;;;;;;;16.95;11.18;;;17.30;81.80;;;;;;5050221;28;20025;-77
2021/08/01 07:43:24;;;;;;;13.35;7.97;;;17.30;82.10;;;;;;5050346;28;20064;-77
2021/08/01 07:45:50;;;;;;;19.88;11.73;;;17.30;82.20;;;;;;5049930;28;20063;-77
2021/08/01 07:48:15;;;;;;;8.88;5.95;;;17.30;82.10;;;;;;5049515;28;20508;-76
2021/08/01 07:50:41;;;;;;;17.50;10.23;;;17.30;82.10;;;;;;5049669;28;20029;-78
2021/08/01 07:53:07;;;;;;;13.75;9.05;;;17.30;82.10;;;;;;5049741;28;20052;-78
2021/08/01 07:55:32;;;;;;;16.27;9.93;;;17.30;82.10;;;;;;5042988;28;20009;-78
2021/08/01 07:57:58;;;;;;;9.65;7.32;;;17.30;82.10;;;;;;5048159;28;20045;-78
2021/08/01 08:00:24;;;;;;;14.23;10.00;;;17.30;82.10;;;;;;5048737;28;20104;-79
2021/08/01 08:02:49;;;;;;;16.35;10.40;;;17.40;82.00;;;;;;5050815;28;20764;-78
2021/08/01 08:05:15;;;;;;;16.58;9.90;;;17.30;82.00;;;;;;5049153;28;20036;-79
2021/08/01 08:07:41;;;;;;;19.55;12.88;;;17.30;82.00;;;;;;5049644;28;20032;-79
2021/08/01 08:10:08;;;;;;;15.00;9.60;;;17.30;82.00;;;;;;5049398;28;20017;-79
2021/08/01 08:12:34;;;;;;;17.75;11.13;;;17.30;82.00;;;;;;5049589;28;20082;-79
2021/08/01 08:15:00;;;;;;;19.98;13.45;;;17.40;81.90;;;;;;5049778;28;20021;-87
2021/08/01 08:17:25;;;;;;;24.50;14.38;;;17.30;82.00;;;;;;5049067;28;20031;-78
2021/08/01 08:19:51;;;;;;;20.58;12.25;;;17.30;82.00;;;;;;5048287;28;20480;-79
2021/08/01 08:22:16;;;;;;;12.90;7.25;;;17.30;82.00;;;;;;5049652;28;20078;-79
2021/08/01 08:24:42;;;;;;;13.38;8.57;;;17.40;82.00;;;;;;5041366;28;20025;-79
2021/08/01 08:27:08;;;;;;;18.67;11.15;;;17.40;81.80;;;;;;5048005;28;20036;-78
2021/08/01 08:29:33;;;;;;;21.90;13.90;;;17.50;81.70;;;;;;5049658;28;20061;-79
2021/08/01 08:31:59;;;;;;;22.38;12.88;;;17.50;81.50;;;;;;5050301;28;20658;-79
2021/08/01 08:34:26;;;;;;;20.30;12.35;;;17.50;81.60;;;;;;5050068;28;20021;-78
2021/08/01 08:36:53;;;;;;;13.55;8.27;;;17.60;81.60;;;;;;5049280;28;20033;-77
2021/08/01 08:39:22;;;;;;;20.10;11.90;;;17.60;81.50;;;;;;5048063;28;20423;-79
2021/08/01 08:41:49;;;;;;;21.85;14.38;;;17.70;81.40;;;;;;5047624;28;20071;-77
2021/08/01 08:44:15;;;;;;;20.48;13.90;;;17.70;81.40;;;;;;5048233;28;20036;-77
2021/08/01 08:46:41;;;;;;;21.83;13.32;;;17.70;81.30;;;;;;5046052;28;20059;-77
2021/08/01 08:49:12;;;;;;;21.63;13.52;;;17.80;81.20;;;;;;5042171;28;20135;-77
2021/08/01 08:51:39;;;;;;;24.67;14.75;;;17.70;81.20;;;;;;5045236;28;20021;-77
2021/08/01 08:54:12;;;;;;;26.20;15.63;;;17.80;81.20;;;;;;5050319;28;20032;-77
2021/08/01 08:56:38;;;;;;;19.08;11.07;;;17.80;81.00;;;;;;5035464;28;20152;-77
2021/08/01 08:59:05;;;;;;;23.40;14.02;;;17.80;80.90;;;;;;5044887;28;20067;-78
2021/08/01 09:01:31;;;;;;;22.55;12.60;;;17.90;81.00;;;;;;5050142;28;20107;-78
2021/08/01 09:03:56;;;;;;;16.30;10.43;;;17.90;80.80;;;;;;5049748;28;20104;-78
2021/08/01 09:06:22;;;;;;;25.80;16.38;;;18.00;80.70;;;;;;5046082;28;20031;-77
2021/08/01 09:08:48;;;;;;;26.23;16.02;;;18.00;80.60;;;;;;5048124;28;20507;-78
2021/08/01 09:11:13;;;;;;;23.15;14.48;;;17.90;80.60;;;;;;5047801;28;20025;-77
2021/08/01 09:13:50;;;;;;;20.90;12.50;;;18.00;80.60;;;;;;5045972;28;20021;-77
2021/08/01 09:16:18;;;;;;;23.92;14.82;;;18.00;80.50;;;;;;5046654;28;20055;-77
2021/08/01 09:18:44;;;;;;;19.27;12.23;;;18.10;80.30;;;;;;5047035;28;20450;-76
2021/08/01 09:21:28;;;;;;;20.25;12.13;;;18.20;80.20;;;;;;5043135;28;20490;-77
2021/08/01 09:23:53;;;;;;;24.27;15.23;;;18.20;80.00;;;;;;5046982;28;20108;-76
2021/08/01 09:26:19;;;;;;;31.15;19.05;;;18.30;79.80;;;;;;5048477;28;20037;-77
2021/08/01 09:29:01;;;;;;;25.58;15.60;;;18.30;79.70;;;;;;5048516;28;20021;-77
2021/08/01 09:31:27;;;;;;;30.83;19.33;;;18.20;79.80;;;;;;5045125;28;20025;-77
2021/08/01 09:33:53;;;;;;;29.38;17.90;;;18.30;79.70;;;;;;5045640;28;20025;-77
2021/08/01 09:36:24;;;;;;;20.80;12.93;;;18.20;79.70;;;;;;5046092;28;20033;-77
2021/08/01 09:38:57;;;;;;;23.67;15.20;;;18.30;79.70;;;;;;5045912;28;20035;-77
2021/08/01 09:41:36;;;;;;;35.10;20.85;;;18.30;79.50;;;;;;5046479;28;20040;-76
2021/08/01 09:44:04;;;;;;;24.17;15.00;;;18.30;79.50;;;;;;5045096;28;20041;-76
2021/08/01 09:46:47;;;;;;;19.30;13.15;;;18.50;79.60;;;;;;5047236;28;20464;-78
2021/08/01 09:49:20;;;;;;;24.13;14.05;;;18.90;79.30;;;;;;5045179;28;20024;-77
2021/08/01 09:51:47;;;;;;;28.73;18.25;;;19.10;78.50;;;;;;5046760;28;20021;-76
2021/08/01 09:54:14;;;;;;;40.83;24.35;;;19.30;77.70;;;;;;5045793;28;20423;-77
2021/08/01 09:56:52;;;;;;;26.27;16.05;;;19.40;76.80;;;;;;5044317;28;20021;-77
2021/08/01 09:59:19;;;;;;;23.67;15.23;;;19.50;76.70;;;;;;5046725;28;20021;-77
2021/08/01 10:01:49;;;;;;;26.13;15.65;;;19.70;76.40;;;;;;5046637;28;20391;-76
2021/08/01 10:04:38;;;;;;;23.48;15.55;;;19.90;75.80;;;;;;5044387;28;20029;-77
2021/08/01 10:07:06;;;;;;;18.35;12.15;;;19.90;75.30;;;;;;5045721;28;20029;-76
2021/08/01 10:09:32;;;;;;;24.63;14.90;;;20.00;75.40;;;;;;5049780;28;20031;-77
2021/08/01 10:11:58;;;;;;;20.02;13.20;;;20.00;75.30;;;;;;5047550;28;20043;-76
2021/08/01 10:14:25;;;;;;;18.30;11.75;;;20.10;75.20;;;;;;5049342;28;20029;-76
2021/08/01 10:16:50;;;;;;;20.73;12.30;;;20.30;74.80;;;;;;5048100;28;20021;-76
2021/08/01 10:19:18;;;;;;;16.25;10.55;;;20.30;74.60;;;;;;5049420;28;20032;-76
2021/08/01 10:21:49;;;;;;;20.25;12.27;;;20.40;74.20;;;;;;5050382;28;20036;-76
2021/08/01 10:24:19;;;;;;;21.92;13.20;;;20.50;74.10;;;;;;5049523;28;20071;-76
2021/08/01 10:26:50;;;;;;;18.42;12.52;;;20.40;73.70;;;;;;5048100;28;20542;-76
2021/08/01 10:29:23;;;;;;;21.17;12.52;;;20.50;73.90;;;;;;5049894;28;20079;-76
2021/08/01 10:32:22;;;;;;;27.90;17.55;;;20.70;73.60;;;;;;5048241;28;20043;-76
2021/08/01 10:35:08;;;;;;;19.42;13.23;;;20.80;72.60;;;;;;5021774;28;20046;-77
2021/08/01 10:37:43;;;;;;;16.65;10.27;;;20.90;72.40;;;;;;5043008;28;20037;-77
2021/08/01 10:40:11;;;;;;;21.58;14.02;;;20.90;72.30;;;;;;5034763;28;20055;-76
2021/08/01 10:42:40;;;;;;;14.55;9.90;;;20.90;71.90;;;;;;5046797;28;20448;-76
2021/08/01 10:45:06;;;;;;;15.35;10.80;;;20.80;72.20;;;;;;5045119;28;20037;-76
2021/08/01 10:47:34;;;;;;;14.02;8.95;;;20.70;72.70;;;;;;5045700;28;20025;-76
2021/08/01 10:50:01;;;;;;;13.80;8.88;;;20.60;73.10;;;;;;5045049;28;20078;-76
2021/08/01 10:52:33;;;;;;;11.95;8.30;;;20.60;73.50;;;;;;5045274;28;20124;-77
2021/08/01 10:55:04;;;;;;;14.70;9.23;;;20.50;73.90;;;;;;5046898;28;20036;-77
2021/08/01 10:57:31;;;;;;;16.17;10.52;;;20.50;74.30;;;;;;5047665;28;20502;-76
2021/08/01 10:59:58;;;;;;;17.98;9.70;;;20.40;74.60;;;;;;5048163;28;20033;-76
2021/08/01 11:02:25;;;;;;;15.63;8.85;;;20.20;75.00;;;;;;5042509;28;20037;-77
2021/08/01 11:04:51;;;;;;;10.88;7.70;;;20.10;75.50;;;;;;5044560;28;20509;-78
2021/08/01 11:07:26;;;;;;;11.52;8.10;;;20.00;75.90;;;;;;5049792;28;20032;-77
2021/08/01 11:10:07;;;;;;;8.05;5.85;;;19.90;76.30;;;;;;5048915;28;20032;-77
2021/08/01 11:12:42;;;;;;;11.07;7.60;;;19.80;76.50;;;;;;5047538;28;20028;-77
2021/08/01 11:15:14;;;;;;;8.63;5.72;;;19.60;76.80;;;;;;5035336;28;20032;-77
2021/08/01 11:17:43;;;;;;;7.80;4.90;;;19.60;77.20;;;;;;5047429;28;20036;-77
2021/08/01 11:20:14;;;;;;;5.57;3.90;;;19.50;77.40;;;;;;5048392;28;20040;-77
2021/08/01 11:22:40;;;;;;;6.15;4.10;;;19.60;77.50;;;;;;5045278;28;20053;-76
2021/08/01 11:25:35;;;;;;;5.40;3.83;;;19.60;77.50;;;;;;5043651;28;20391;-76
2021/08/01 11:28:10;;;;;;;5.05;3.63;;;19.70;77.20;;;;;;5041395;28;20017;-76
2021/08/01 11:30:54;;;;;;;4.45;3.25;;;19.80;77.00;;;;;;5048348;28;20033;-76
2021/08/01 11:33:34;;;;;;;4.18;2.72;;;19.80;76.90;;;;;;5044591;28;20025;-75
2021/08/01 11:36:17;;;;;;;5.93;3.90;;;19.90;76.70;;;;;;5044223;28;20099;-76
2021/08/01 11:38:51;;;;;;;7.13;4.60;;;19.90;76.60;;;;;;5050301;28;20102;-75
2021/08/01 11:41:30;;;;;;;6.68;4.40;;;20.00;76.40;;;;;;5047391;28;20101;-76
2021/08/01 11:44:14;;;;;;;7.22;5.07;;;20.00;76.30;;;;;;5047504;28;20365;-75
2021/08/01 11:46:58;;;;;;;7.80;4.88;;;20.10;76.30;;;;;;5046011;28;20024;-75
2021/08/01 11:49:24;;;;;;;8.60;4.65;;;20.00;76.20;;;;;;5043983;28;20035;-76
2021/08/01 11:51:55;;;;;;;7.43;5.10;;;20.10;76.30;;;;;;5047863;28;20036;-77
2021/08/01 11:54:27;;;;;;;8.00;5.25;;;20.10;76.30;;;;;;5046162;28;20111;-77
2021/08/01 11:56:56;;;;;;;5.93;4.00;;;20.10;76.40;;;;;;5048253;28;20029;-77
2021/08/01 11:59:23;;;;;;;6.72;4.55;;;20.00;76.60;;;;;;5044026;28;20533;-77
2021/08/01 12:01:49;;;;;;;6.13;4.22;;;19.90;76.90;;;;;;5050606;28;20027;-78
2021/08/01 12:04:15;;;;;;;5.80;4.03;;;19.80;77.10;;;;;;5048561;28;20036;-77
2021/08/01 12:06:42;;;;;;;5.13;3.35;;;19.80;77.40;;;;;;5048741;28;20025;-78
2021/08/01 12:09:23;;;;;;;4.25;2.97;;;19.70;77.40;;;;;;5050324;28;20021;-78
2021/08/01 12:11:50;;;;;;;6.63;4.00;;;19.60;77.50;;;;;;5040891;28;20025;-79
2021/08/01 12:14:16;;;;;;;5.82;3.75;;;19.60;77.50;;;;;;5048340;28;20029;-78
2021/08/01 12:16:59;;;;;;;5.57;3.78;;;19.50;77.70;;;;;;5049953;28;20539;-77
2021/08/01 12:19:30;;;;;;;;;;;19.50;78.00;;;;;;5047716;28;20526;-80
2021/08/01 12:22:01;;;;;;;6.32;4.18;;;19.40;78.10;;;;;;5049301;28;20318;-77
2021/08/01 12:24:30;;;;;;;5.28;3.60;;;19.30;78.40;;;;;;5045185;28;20084;-76
2021/08/01 12:27:01;;;;;;;6.07;4.22;;;19.30;78.70;;;;;;5045551;28;20419;-76
2021/08/01 12:29:32;;;;;;;5.03;3.58;;;19.30;78.90;;;;;;5046080;28;20025;-77
2021/08/01 12:31:59;;;;;;;5.45;3.45;;;19.30;79.00;;;;;;5047462;28;20063;-76
2021/08/01 12:34:25;;;;;;;5.70;3.67;;;19.30;79.10;;;;;;5049665;28;20020;-78
2021/08/01 12:36:51;;;;;;;3.90;2.90;;;19.40;79.10;;;;;;5049112;28;20024;-79
2021/08/01 12:39:18;;;;;;;4.07;2.97;;;19.50;79.00;;;;;;5044276;28;20021;-76
2021/08/01 12:41:49;;;;;;;3.53;2.78;;;19.70;78.70;;;;;;5049096;28;20029;-77
2021/08/01 12:44:16;;;;;;;3.03;2.30;;;19.80;78.50;;;;;;5043703;28;20044;-76
2021/08/01 12:46:42;;;;;;;3.00;2.40;;;19.90;78.30;;;;;;5035709;28;20025;-75